Time;durP1;ratioP1;P1;durP2;ratioP2;P2;SDS_P1;SDS_P2;PMS_P1;PMS_P2;Temp;Humidity;BMP_temperature;BMP_pressure;BME280_temperature;BME280_humidity;BME280_pressure;Samples;Min_cycle;Max_cycle;Signal;HPM_P1;HPM_P2
2021/11/14 00:00:26;;;;;;;51.00;26.55;;;;;;;5.40;100.00;95766.38;1018669;29;20115;-69
2021/11/14 00:00:58;;;;;;;45.10;24.70;;;;;;;5.39;100.00;95764.75;1023848;28;20020;-69
2021/11/14 00:01:28;;;;;;;38.78;24.52;;;;;;;5.32;100.00;95758.09;1026487;28;20753;-69
2021/11/14 00:01:59;;;;;;;48.83;26.30;;;;;;;5.34;100.00;95759.47;1026318;28;20749;-69
2021/11/14 00:02:29;;;;;;;38.53;22.58;;;;;;;5.38;100.00;95768.41;1014834;29;20412;-70
2021/11/14 00:03:00;;;;;;;42.03;24.50;;;;;;;5.37;100.00;95764.22;1014798;29;20012;-69
2021/11/14 00:03:31;;;;;;;38.97;22.33;;;;;;;5.32;100.00;95756.28;1022913;28;20155;-70
2021/11/14 00:04:02;;;;;;;46.30;24.13;;;;;;;5.40;100.00;95760.38;1026832;28;20286;-69
2021/11/14 00:04:33;;;;;;;37.95;23.05;;;;;;;5.36;100.00;95754.03;1030706;28;20274;-68
2021/11/14 00:05:07;;;;;;;41.45;24.85;;;;;;;5.39;100.00;95764.75;1023023;28;20550;-69
2021/11/14 00:05:38;;;;;;;32.92;21.73;;;;;;;5.31;100.00;95744.31;1023526;28;20491;-69
2021/11/14 00:06:09;;;;;;;36.50;22.85;;;;;;;5.40;100.00;95763.75;1022905;28;20334;-69
2021/11/14 00:06:39;;;;;;;39.00;23.80;;;;;;;5.36;100.00;95760.00;1021757;28;20454;-70
2021/11/14 00:07:10;;;;;;;40.17;22.38;;;;;;;5.38;100.00;95763.19;1022880;28;20341;-69
2021/11/14 00:07:40;;;;;;;35.35;22.75;;;;;;;5.38;100.00;95765.00;1026787;28;20503;-68
2021/11/14 00:08:12;;;;;;;36.17;23.85;;;;;;;5.34;100.00;95756.88;1024456;28;20609;-69
2021/11/14 00:08:42;;;;;;;35.17;22.58;;;;;;;5.40;100.00;95768.97;1026884;28;20364;-69
2021/11/14 00:09:13;;;;;;;35.83;22.33;;;;;;;5.40;100.00;95762.97;1018741;29;20830;-69
2021/11/14 00:09:44;;;;;;;33.58;22.77;;;;;;;5.40;100.00;95766.38;1015307;29;20028;-70
2021/11/14 00:10:15;;;;;;;38.25;22.77;;;;;;;5.39;100.00;95759.56;1023183;28;20059;-68
2021/11/14 00:10:47;;;;;;;43.30;23.38;;;;;;;5.38;100.00;95767.59;1027249;28;20848;-68
2021/11/14 00:11:18;;;;;;;37.60;21.60;;;;;;;5.38;100.00;95770.22;1030026;28;20028;-69
2021/11/14 00:11:49;;;;;;;31.90;21.48;;;;;;;5.38;100.00;95768.41;1023327;28;20314;-69
2021/11/14 00:12:19;;;;;;;37.92;21.85;;;;;;;5.39;100.00;95764.75;1028649;28;20261;-69
2021/11/14 00:12:50;;;;;;;36.88;22.63;;;;;;;5.38;100.00;95765.00;1025603;28;20023;-69
2021/11/14 00:13:20;;;;;;;34.67;20.65;;;;;;;5.32;100.00;95758.91;1019025;28;20687;-68
2021/11/14 00:13:51;;;;;;;40.08;22.92;;;;;;;5.35;100.00;95762.84;1024965;28;20375;-68
2021/11/14 00:14:22;;;;;;;36.80;22.38;;;;;;;5.39;100.00;95764.75;1019137;29;20042;-69
2021/11/14 00:14:52;;;;;;;44.85;24.67;;;;;;;5.35;100.00;95755.84;1018736;29;20038;-68
2021/11/14 00:15:23;;;;;;;35.10;22.30;;;;;;;5.37;100.00;95761.63;1018025;29;20471;-68
2021/11/14 00:15:53;;;;;;;39.63;23.48;;;;;;;5.44;100.00;95771.91;1019251;29;20046;-68
2021/11/14 00:16:24;;;;;;;35.97;21.60;;;;;;;5.35;100.00;95762.84;1019184;29;20020;-68
2021/11/14 00:16:54;;;;;;;38.97;22.48;;;;;;;5.39;100.00;95769.97;1021371;29;20039;-68
2021/11/14 00:17:25;;;;;;;44.95;24.88;;;;;;;5.42;100.00;95772.13;1014843;29;21020;-69
2021/11/14 00:17:55;;;;;;;41.80;23.73;;;;;;;5.41;100.00;95765.34;1014208;29;20032;-69
2021/11/14 00:18:26;;;;;;;43.33;23.55;;;;;;;5.37;100.00;95759.00;1012444;29;20087;-69
2021/11/14 00:18:57;;;;;;;50.70;26.17;;;;;;;5.39;100.00;95766.59;1014947;29;20050;-69
2021/11/14 00:19:27;;;;;;;39.30;24.13;;;;;;;5.43;100.00;95765.91;1018733;29;20067;-68
2021/11/14 00:19:57;;;;;;;48.55;26.90;;;;;;;5.43;100.00;95765.09;1019038;29;20034;-71
2021/11/14 00:20:28;;;;;;;40.90;24.02;;;;;;;5.40;100.00;95771.56;1020088;28;20742;-68
2021/11/14 00:20:58;;;;;;;40.33;23.60;;;;;;;5.41;100.00;95773.16;1018908;29;21187;-69
2021/11/14 00:21:29;;;;;;;38.33;22.35;;;;;;;5.39;100.00;95764.75;1024956;28;20019;-69
2021/11/14 00:22:00;;;;;;;37.58;21.67;;;;;;;5.42;100.00;95766.91;1026872;28;20034;-69
2021/11/14 00:22:30;;;;;;;41.00;23.95;;;;;;;5.41;100.00;95769.75;1026769;28;20019;-69
2021/11/14 00:23:01;;;;;;;37.83;23.27;;;;;;;5.34;100.00;95756.88;1026861;28;20066;-69
2021/11/14 00:23:31;;;;;;;34.88;22.33;;;;;;;5.41;100.00;95765.34;1026591;28;20011;-69
2021/11/14 00:24:02;;;;;;;39.70;22.25;;;;;;;5.41;100.00;95767.94;1028806;28;20018;-68
2021/11/14 00:24:32;;;;;;;35.83;22.52;;;;;;;5.41;100.00;95769.75;1026925;28;20042;-70
2021/11/14 00:25:04;;;;;;;40.97;23.42;;;;;;;5.37;100.00;95763.44;1022856;29;20083;-70
2021/11/14 00:25:35;;;;;;;39.40;23.13;;;;;;;5.40;100.00;95771.56;1022625;29;20486;-69
2021/11/14 00:26:05;;;;;;;35.35;21.88;;;;;;;5.42;100.00;95766.91;1026062;28;20282;-70
2021/11/14 00:26:36;;;;;;;33.78;21.00;;;;;;;5.34;100.00;95756.09;1022952;29;20038;-69
2021/11/14 00:27:06;;;;;;;37.22;22.77;;;;;;;5.33;100.00;95755.28;1022801;28;20035;-68
2021/11/14 00:27:37;;;;;;;35.28;21.58;;;;;;;5.36;100.00;95760.00;1025963;28;20125;-68
2021/11/14 00:28:09;;;;;;;36.97;22.38;;;;;;;5.41;100.00;95767.16;1022528;29;20097;-69
2021/11/14 00:28:42;;;;;;;36.97;23.48;;;;;;;5.42;100.00;95766.13;1022497;29;20632;-69
2021/11/14 00:29:12;;;;;;;36.67;21.92;;;;;;;5.45;100.00;95768.28;1022456;28;20805;-70
2021/11/14 00:29:42;;;;;;;35.60;21.52;;;;;;;5.46;100.00;95771.66;1017433;29;20264;-69
2021/11/14 00:30:13;;;;;;;44.60;24.75;;;;;;;5.37;100.00;95753.81;1023606;28;20019;-69
2021/11/14 00:30:43;;;;;;;29.67;20.15;;;;;;;5.42;100.00;95763.53;1026918;28;20015;-69
2021/11/14 00:31:16;;;;;;;33.38;21.50;;;;;;;5.39;100.00;95759.56;1022540;28;20015;-69
2021/11/14 00:31:46;;;;;;;52.47;27.27;;;;;;;5.41;100.00;95762.72;1022710;29;20023;-68
2021/11/14 00:32:17;;;;;;;47.03;25.58;;;;;;;5.41;100.00;95767.16;1023333;28;20258;-68
2021/11/14 00:32:51;;;;;;;50.63;25.40;;;;;;;5.42;100.00;95766.13;1030941;28;20118;-69
2021/11/14 00:33:21;;;;;;;38.28;22.92;;;;;;;5.42;100.00;95764.31;1030973;28;20308;-70
2021/11/14 00:33:52;;;;;;;39.13;23.45;;;;;;;5.42;100.00;95764.31;1024517;28;20298;-68
2021/11/14 00:34:22;;;;;;;52.95;27.15;;;;;;;5.41;100.00;95765.34;1021160;29;20031;-69
2021/11/14 00:34:53;;;;;;;51.67;26.08;;;;;;;5.43;100.00;95765.91;1018888;29;20035;-69
2021/11/14 00:35:23;;;;;;;68.55;30.08;;;;;;;5.43;100.00;95768.50;1019523;28;20020;-70
2021/11/14 00:35:54;;;;;;;59.40;29.40;;;;;;;5.41;100.00;95760.13;1026391;28;20042;-68
2021/11/14 00:36:27;;;;;;;61.65;29.77;;;;;;;5.43;100.00;95765.09;1027008;28;20114;-69
2021/11/14 00:36:58;;;;;;;80.70;31.70;;;;;;;5.43;100.00;95768.50;1030904;28;20094;-69
2021/11/14 00:37:29;;;;;;;52.20;25.52;;;;;;;5.48;100.00;95772.22;1034745;28;20640;-68
2021/11/14 00:38:00;;;;;;;47.65;26.25;;;;;;;5.43;100.00;95768.50;1033711;28;20022;-69
2021/11/14 00:38:30;;;;;;;62.13;29.85;;;;;;;5.41;100.00;95767.94;1030731;28;20261;-68
2021/11/14 00:39:00;;;;;;;54.53;27.00;;;;;;;5.41;100.00;95762.72;1030997;28;20031;-68
2021/11/14 00:39:31;;;;;;;43.92;24.65;;;;;;;5.43;100.00;95765.91;1032620;28;20061;-68
2021/11/14 00:40:04;;;;;;;43.85;24.33;;;;;;;5.35;100.00;95758.44;1030645;28;20038;-68
2021/11/14 00:40:35;;;;;;;42.47;24.77;;;;;;;5.36;100.00;95761.84;1019052;29;20028;-69
2021/11/14 00:41:06;;;;;;;45.20;25.00;;;;;;;5.34;100.00;95756.09;1022222;28;20287;-68
2021/11/14 00:41:36;;;;;;;40.80;24.15;;;;;;;5.37;100.00;95764.22;1016336;29;20260;-68
2021/11/14 00:42:07;;;;;;;37.72;23.98;;;;;;;5.38;100.00;95762.41;1019230;29;20035;-69
2021/11/14 00:42:37;;;;;;;41.25;24.45;;;;;;;5.38;100.00;95768.41;1022528;28;20054;-68
2021/11/14 00:43:08;;;;;;;43.63;25.50;;;;;;;5.31;100.00;95752.13;1025492;28;20565;-69
2021/11/14 00:43:38;;;;;;;53.88;27.38;;;;;;;5.31;100.00;95757.31;1031229;28;20026;-69
2021/11/14 00:44:09;;;;;;;58.80;29.40;;;;;;;5.35;100.00;95762.84;1030988;28;20018;-68
2021/11/14 00:44:39;;;;;;;56.53;28.58;;;;;;;5.40;100.00;95766.38;1028853;28;20025;-69
2021/11/14 00:45:10;;;;;;;41.40;24.27;;;;;;;5.41;100.00;95767.16;1026948;28;20038;-68
2021/11/14 00:45:44;;;;;;;63.47;28.55;;;;;;;5.38;100.00;95762.41;1027060;28;20676;-68
2021/11/14 00:46:14;;;;;;;69.10;29.48;;;;;;;5.38;100.00;95768.41;1026202;28;20030;-69
2021/11/14 00:46:45;;;;;;;52.08;26.33;;;;;;;5.37;100.00;95764.22;1019456;29;20365;-67
2021/11/14 00:47:16;;;;;;;33.95;21.58;;;;;;;5.38;100.00;95760.59;1020617;28;20020;-68
2021/11/14 00:47:46;;;;;;;51.58;27.52;;;;;;;5.31;100.00;95751.34;1022613;29;20656;-68
2021/11/14 00:48:16;;;;;;;50.38;26.08;;;;;;;5.39;100.00;95769.97;1023043;28;20023;-69
2021/11/14 00:48:47;;;;;;;62.65;28.67;;;;;;;5.41;100.00;95767.94;1023480;29;20031;-67
2021/11/14 00:49:17;;;;;;;81.80;29.63;;;;;;;5.40;100.00;95771.56;1023200;28;20019;-68
2021/11/14 00:49:49;;;;;;;90.25;32.80;;;;;;;5.35;100.00;95757.66;1027131;28;20482;-68
2021/11/14 00:50:19;;;;;;;76.15;28.77;;;;;;;5.40;100.00;95768.97;1027466;28;20105;-67
2021/11/14 00:50:50;;;;;;;89.95;32.58;;;;;;;5.41;100.00;95767.16;1031184;28;20752;-69
2021/11/14 00:51:28;;;;;;;90.53;32.42;;;;;;;5.37;100.00;95763.44;1019153;29;20028;-68
2021/11/14 00:51:58;;;;;;;67.65;29.58;;;;;;;5.41;100.00;95767.94;1019382;29;20027;-68
2021/11/14 00:52:29;;;;;;;42.33;23.55;;;;;;;5.36;100.00;95760.00;1019184;29;20275;-68
2021/11/14 00:53:01;;;;;;;57.22;26.63;;;;;;;5.40;100.00;95774.16;1020170;28;20032;-68
2021/11/14 00:53:31;;;;;;;52.92;27.15;;;;;;;5.40;100.00;95774.16;1027266;28;20085;-67
2021/11/14 00:54:03;;;;;;;57.00;27.30;;;;;;;5.36;100.00;95764.44;1023226;28;20342;-69
2021/11/14 00:54:33;;;;;;;56.60;27.80;;;;;;;5.39;100.00;95774.38;1023143;29;20110;-68
2021/11/14 00:55:04;;;;;;;60.63;28.83;;;;;;;5.37;100.00;95773.84;1023685;28;20833;-67
2021/11/14 00:55:35;;;;;;;88.07;32.78;;;;;;;5.37;100.00;95774.63;1027844;28;20030;-67
2021/11/14 00:56:05;;;;;;;50.80;26.00;;;;;;;5.40;100.00;95768.19;1023143;28;20494;-68
2021/11/14 00:56:36;;;;;;;67.13;29.30;;;;;;;5.30;100.00;95760.13;1027372;28;20120;-68
2021/11/14 00:57:06;;;;;;;72.78;31.45;;;;;;;5.39;100.00;95774.38;1019281;29;20031;-68
2021/11/14 00:57:37;;;;;;;78.78;31.25;;;;;;;5.38;100.00;95772.81;1014741;29;20593;-67
2021/11/14 00:58:07;;;;;;;58.92;27.77;;;;;;;5.38;100.00;95776.19;1022878;28;20115;-68
2021/11/14 00:58:38;;;;;;;72.70;31.40;;;;;;;5.38;100.00;95772.81;1019409;28;20080;-67
2021/11/14 00:59:08;;;;;;;53.83;27.13;;;;;;;5.37;100.00;95771.25;1022881;29;20031;-68
2021/11/14 00:59:39;;;;;;;63.75;29.38;;;;;;;5.34;100.00;95775.06;1023568;28;20042;-68
2021/11/14 01:00:12;;;;;;;56.03;28.77;;;;;;;5.36;100.00;95770.41;1031229;28;20034;-69
2021/11/14 01:00:43;;;;;;;56.63;28.73;;;;;;;5.35;100.00;95768.84;1034912;28;20688;-68
2021/11/14 01:01:14;;;;;;;60.83;28.58;;;;;;;5.34;100.00;95772.47;1030527;28;20411;-68
2021/11/14 01:01:44;;;;;;;56.70;28.80;;;;;;;5.35;100.00;95776.66;1030985;28;20526;-68
2021/11/14 01:02:14;;;;;;;76.30;32.17;;;;;;;5.36;100.00;95770.41;1027371;28;20490;-69
2021/11/14 01:02:45;;;;;;;63.33;28.98;;;;;;;5.39;100.00;95772.56;1029239;28;20651;-68
2021/11/14 01:03:15;;;;;;;110.88;38.67;;;;;;;5.38;100.00;95765.00;1027029;28;20489;-68
2021/11/14 01:03:46;;;;;;;84.95;30.05;;;;;;;5.37;100.00;95772.03;1023500;29;20053;-67
2021/11/14 01:04:16;;;;;;;90.35;34.28;;;;;;;5.37;100.00;95766.81;1023169;29;20027;-68
2021/11/14 01:04:47;;;;;;;64.85;30.67;;;;;;;5.37;100.00;95771.25;1023503;28;20031;-67
2021/11/14 01:05:18;;;;;;;48.22;25.73;;;;;;;5.35;100.00;95763.66;1023324;28;20112;-68
2021/11/14 01:05:48;;;;;;;49.00;25.20;;;;;;;5.37;100.00;95771.25;1023284;29;20046;-67
2021/11/14 01:06:22;;;;;;;68.20;30.70;;;;;;;5.38;100.00;95767.59;1019135;29;20027;-69
2021/11/14 01:06:52;;;;;;;75.70;31.05;;;;;;;5.37;100.00;95766.81;1022788;28;20035;-70
2021/11/14 01:07:22;;;;;;;46.50;24.92;;;;;;;5.37;100.00;95766.03;1023306;29;20270;-67
2021/11/14 01:07:53;;;;;;;57.10;28.10;;;;;;;5.40;100.00;95766.38;1022669;28;20027;-68
2021/11/14 01:08:23;;;;;;;87.93;33.60;;;;;;;5.37;100.00;95766.81;1027214;28;20034;-68
2021/11/14 01:08:54;;;;;;;110.15;35.25;;;;;;;5.35;100.00;95766.25;1027244;28;20042;-68
2021/11/14 01:09:25;;;;;;;59.13;28.65;;;;;;;5.35;100.00;95768.84;1022950;28;20034;-68
2021/11/14 01:09:56;;;;;;;66.90;31.27;;;;;;;5.38;100.00;95768.41;1018976;29;20451;-69
2021/11/14 01:10:28;;;;;;;86.40;30.95;;;;;;;5.36;100.00;95774.84;1015679;29;20284;-68
2021/11/14 01:10:59;;;;;;;95.47;36.30;;;;;;;5.35;100.00;95768.84;1016365;29;20028;-68
2021/11/14 01:11:29;;;;;;;110.80;38.25;;;;;;;5.29;100.00;95761.16;1019221;28;20267;-68
2021/11/14 01:12:00;;;;;;;80.10;32.38;;;;;;;5.33;100.00;95765.69;1027470;28;20121;-69
2021/11/14 01:12:30;;;;;;;85.38;34.25;;;;;;;5.34;100.00;95769.88;1031208;28;20037;-69
2021/11/14 01:13:01;;;;;;;69.07;32.28;;;;;;;5.37;100.00;95772.03;1027246;28;20039;-68
2021/11/14 01:13:32;;;;;;;61.13;29.55;;;;;;;5.36;100.00;95767.81;1027034;28;20503;-68
2021/11/14 01:14:02;;;;;;;76.65;33.00;;;;;;;5.34;100.00;95771.69;1026928;28;20043;-67
2021/11/14 01:14:33;;;;;;;79.10;34.15;;;;;;;5.21;100.00;95751.91;1027583;28;20043;-67
2021/11/14 01:15:04;;;;;;;93.65;37.25;;;;;;;5.27;100.00;95756.19;1028626;28;20129;-68
2021/11/14 01:15:35;;;;;;;84.18;35.83;;;;;;;5.31;100.00;95766.94;1026946;28;20038;-68
2021/11/14 01:16:07;;;;;;;75.53;34.92;;;;;;;5.27;100.00;95756.19;1019274;29;20722;-70
2021/11/14 01:16:38;;;;;;;83.95;35.65;;;;;;;5.32;100.00;95769.31;1019732;29;20347;-68
2021/11/14 01:17:08;;;;;;;64.30;31.63;;;;;;;5.31;100.00;95770.31;1023809;28;20330;-69
2021/11/14 01:17:39;;;;;;;57.53;28.67;;;;;;;5.31;100.00;95772.16;1027072;28;20023;-67
2021/11/14 01:18:10;;;;;;;72.13;33.80;;;;;;;5.30;100.00;95766.16;1031113;28;20034;-68
2021/11/14 01:18:40;;;;;;;66.22;32.40;;;;;;;5.27;100.00;95766.59;1023266;28;20035;-67
2021/11/14 01:19:11;;;;;;;61.30;30.25;;;;;;;5.29;100.00;95769.75;1027094;28;20065;-68
2021/11/14 01:19:41;;;;;;;62.75;31.25;;;;;;;5.28;100.00;95773.38;1027246;28;20042;-69
2021/11/14 01:20:14;;;;;;;77.05;33.90;;;;;;;5.29;100.00;95769.75;1027386;28;20038;-69
2021/11/14 01:20:46;;;;;;;80.03;32.38;;;;;;;5.29;100.00;95768.97;1031218;28;20030;-69
2021/11/14 01:21:17;;;;;;;76.05;33.45;;;;;;;5.27;100.00;95766.59;1019190;29;20343;-69
2021/11/14 01:21:48;;;;;;;76.05;31.98;;;;;;;5.26;100.00;95774.63;1014809;29;20724;-68
2021/11/14 01:22:18;;;;;;;69.70;31.92;;;;;;;5.25;100.00;95762.66;1023160;28;20058;-67
2021/11/14 01:22:49;;;;;;;60.90;29.17;;;;;;;5.27;100.00;95771.81;1027512;28;20027;-68
2021/11/14 01:23:20;;;;;;;91.35;37.13;;;;;;;5.28;100.00;95762.19;1031379;28;20034;-69
2021/11/14 01:23:53;;;;;;;94.93;36.67;;;;;;;5.28;100.00;95768.19;1027156;28;20274;-69
2021/11/14 01:24:24;;;;;;;78.07;33.22;;;;;;;5.22;100.00;95763.09;1031292;28;20027;-69
2021/11/14 01:24:54;;;;;;;83.90;36.38;;;;;;;5.12;100.00;95750.66;1031278;28;20296;-69
2021/11/14 01:25:25;;;;;;;67.50;31.77;;;;;;;5.28;100.00;95773.38;1032392;28;20045;-69
2021/11/14 01:25:55;;;;;;;73.82;32.13;;;;;;;5.26;100.00;95770.22;1034982;28;20041;-69
2021/11/14 01:26:27;;;;;;;66.22;31.30;;;;;;;5.29;100.00;95769.75;1027081;28;20406;-68
2021/11/14 01:26:57;;;;;;;74.07;32.90;;;;;;;5.29;100.00;95771.56;1027335;28;20789;-68
2021/11/14 01:27:28;;;;;;;79.45;34.28;;;;;;;5.27;100.00;95771.03;1026957;28;20274;-68
2021/11/14 01:27:58;;;;;;;64.45;30.58;;;;;;;5.25;100.00;95773.84;1027106;28;20038;-68
2021/11/14 01:28:29;;;;;;;71.63;31.50;;;;;;;5.29;100.00;95769.75;1034970;28;20030;-67
2021/11/14 01:28:59;;;;;;;68.28;32.03;;;;;;;5.28;100.00;95768.19;1027041;28;20027;-68
2021/11/14 01:29:29;;;;;;;71.43;32.05;;;;;;;5.27;100.00;95771.81;1023248;29;20050;-68
2021/11/14 01:30:00;;;;;;;65.88;30.65;;;;;;;5.17;100.00;95759.38;1023108;29;20395;-68
2021/11/14 01:30:33;;;;;;;69.70;31.83;;;;;;;5.25;100.00;95771.25;1025519;28;20030;-68
2021/11/14 01:31:03;;;;;;;76.68;33.00;;;;;;;5.27;100.00;95771.81;1027115;28;20029;-69
2021/11/14 01:31:34;;;;;;;83.53;34.60;;;;;;;5.28;100.00;95767.41;1022911;29;20817;-68
2021/11/14 01:32:05;;;;;;;59.22;29.42;;;;;;;5.25;100.00;95771.25;1027173;28;20086;-70
2021/11/14 01:32:35;;;;;;;49.22;27.08;;;;;;;5.27;100.00;95769.22;1029508;28;20041;-68
2021/11/14 01:33:06;;;;;;;58.28;29.00;;;;;;;5.21;100.00;95762.31;1031239;28;20035;-69
2021/11/14 01:33:37;;;;;;;69.65;31.88;;;;;;;5.25;100.00;95768.63;1026998;28;20518;-68
2021/11/14 01:34:07;;;;;;;71.63;31.55;;;;;;;5.25;100.00;95771.25;1027088;28;20278;-67
2021/11/14 01:34:38;;;;;;;67.15;30.45;;;;;;;5.23;100.00;95765.50;1031242;28;20026;-70
2021/11/14 01:35:09;;;;;;;73.60;32.20;;;;;;;5.25;100.00;95766.03;1027411;28;20038;-68
2021/11/14 01:35:40;;;;;;;109.45;39.10;;;;;;;5.27;100.00;95761.41;1026188;28;20070;-68
2021/11/14 01:36:10;;;;;;;77.80;32.95;;;;;;;5.25;100.00;95773.84;1026892;28;20271;-70
2021/11/14 01:36:43;;;;;;;69.30;31.30;;;;;;;5.24;100.00;95776.69;1027832;28;20031;-68
2021/11/14 01:37:14;;;;;;;68.85;32.60;;;;;;;5.25;100.00;95768.63;1031417;28;20277;-69
2021/11/14 01:37:46;;;;;;;88.03;35.38;;;;;;;5.26;100.00;95772.03;1030891;28;20425;-68
2021/11/14 01:38:17;;;;;;;98.60;36.50;;;;;;;5.27;100.00;95773.63;1034992;28;20504;-68
2021/11/14 01:38:47;;;;;;;88.80;35.67;;;;;;;5.28;100.00;95762.19;1030802;28;20347;-68
2021/11/14 01:39:18;;;;;;;117.88;39.40;;;;;;;5.25;100.00;95768.63;1031606;28;20034;-69
2021/11/14 01:39:49;;;;;;;108.13;38.90;;;;;;;5.28;100.00;95772.59;1030611;28;20046;-68
2021/11/14 01:40:29;;;;;;;75.18;32.58;;;;;;;5.26;100.00;95775.41;1022810;29;20031;-69
2021/11/14 01:41:01;;;;;;;97.68;36.13;;;;;;;5.26;100.00;95770.22;1024707;28;20487;-69
2021/11/14 01:41:32;;;;;;;77.60;31.08;;;;;;;5.23;100.00;95768.09;1027285;28;20220;-68
2021/11/14 01:42:02;;;;;;;71.80;31.95;;;;;;;5.20;100.00;95760.75;1027068;28;20361;-68
2021/11/14 01:42:33;;;;;;;77.82;33.55;;;;;;;5.25;100.00;95773.84;1026851;28;20031;-68
2021/11/14 01:43:04;;;;;;;57.72;29.13;;;;;;;5.27;100.00;95771.03;1018860;29;20035;-68
2021/11/14 01:43:38;;;;;;;87.53;34.95;;;;;;;5.27;100.00;95777.00;1020835;29;20123;-68
2021/11/14 01:44:10;;;;;;;77.38;33.53;;;;;;;5.19;100.00;95765.13;1026922;28;20270;-68
2021/11/14 01:44:41;;;;;;;81.32;34.30;;;;;;;5.26;100.00;95775.41;1029570;28;20326;-69
2021/11/14 01:45:11;;;;;;;98.30;36.90;;;;;;;5.19;100.00;95759.13;1026916;28;20262;-68
2021/11/14 01:45:41;;;;;;;110.05;39.92;;;;;;;5.26;100.00;95775.41;1023485;28;20094;-68
2021/11/14 01:46:12;;;;;;;106.57;38.97;;;;;;;5.25;100.00;95773.06;1026398;28;20024;-69
2021/11/14 01:46:44;;;;;;;75.93;33.10;;;;;;;5.27;100.00;95777.00;1029857;28;20054;-68
2021/11/14 01:47:15;;;;;;;92.97;37.88;;;;;;;5.26;100.00;95770.22;1031025;28;20050;-69
2021/11/14 01:47:45;;;;;;;92.95;35.65;;;;;;;5.21;100.00;95762.31;1027378;28;20270;-68
2021/11/14 01:48:16;;;;;;;74.47;31.67;;;;;;;5.26;100.00;95770.22;1025315;28;20513;-69
2021/11/14 01:48:47;;;;;;;81.53;35.42;;;;;;;5.20;100.00;95760.75;1020460;28;20544;-67
2021/11/14 01:49:17;;;;;;;86.30;34.72;;;;;;;5.18;100.00;95758.34;1022994;28;20011;-68
2021/11/14 01:49:48;;;;;;;71.63;32.33;;;;;;;5.27;100.00;95774.41;1026608;28;20907;-69
2021/11/14 01:50:18;;;;;;;77.40;34.83;;;;;;;5.21;100.00;95764.91;1023092;28;20042;-68
2021/11/14 01:50:49;;;;;;;94.20;34.83;;;;;;;5.29;100.00;95772.34;1026346;28;20482;-68
2021/11/14 01:51:19;;;;;;;95.45;37.92;;;;;;;5.26;100.00;95775.41;1022848;28;20050;-68
2021/11/14 01:51:50;;;;;;;98.25;36.70;;;;;;;5.26;100.00;95772.81;1022736;28;20023;-68
2021/11/14 01:52:22;;;;;;;79.53;34.15;;;;;;;5.28;100.00;95773.38;1027261;28;20030;-68
2021/11/14 01:52:53;;;;;;;102.32;37.20;;;;;;;5.27;100.00;95771.03;1020910;28;20026;-69
2021/11/14 01:53:25;;;;;;;90.72;35.97;;;;;;;5.24;100.00;95774.88;1027323;28;20257;-68
2021/11/14 01:53:55;;;;;;;66.15;31.30;;;;;;;5.26;100.00;95772.03;1019126;29;20376;-69
2021/11/14 01:54:26;;;;;;;103.10;39.55;;;;;;;5.26;100.00;95769.41;1015433;29;20312;-68
2021/11/14 01:54:57;;;;;;;77.28;34.17;;;;;;;5.24;100.00;95777.47;1015386;29;20028;-68
2021/11/14 01:55:28;;;;;;;90.65;37.28;;;;;;;5.27;100.00;95771.81;1022827;29;20786;-69
2021/11/14 01:55:59;;;;;;;78.82;34.40;;;;;;;5.27;100.00;95769.22;1019007;29;20459;-68
2021/11/14 01:56:29;;;;;;;84.63;36.80;;;;;;;5.25;100.00;95762.66;1018926;29;20259;-69
2021/11/14 01:57:00;;;;;;;79.03;34.38;;;;;;;5.26;100.00;95770.22;1022627;28;20023;-69
2021/11/14 01:57:30;;;;;;;61.22;30.58;;;;;;;5.25;100.00;95771.25;1019155;28;20063;-69
2021/11/14 01:58:01;;;;;;;85.50;35.25;;;;;;;5.28;100.00;95772.59;1027976;28;20419;-68
2021/11/14 01:58:32;;;;;;;80.72;36.05;;;;;;;5.27;100.00;95777.00;1029147;28;20049;-68
2021/11/14 01:59:02;;;;;;;71.68;34.78;;;;;;;5.25;100.00;95773.84;1025068;28;20339;-69
2021/11/14 01:59:35;;;;;;;74.78;32.92;;;;;;;5.27;100.00;95774.41;1030573;28;20316;-68
2021/11/14 02:00:08;;;;;;;81.03;35.03;;;;;;;5.22;100.00;95769.09;1030846;28;20105;-69
2021/11/14 02:00:47;;;;;;;88.10;36.03;;;;;;;5.11;100.00;95743.88;1026976;28;20265;-69
2021/11/14 02:01:23;;;;;;;69.10;32.13;;;;;;;5.30;100.00;95773.16;1030018;28;20697;-68
2021/11/14 02:01:54;;;;;;;80.38;33.65;;;;;;;5.28;100.00;95775.19;1031021;28;20273;-69
2021/11/14 02:02:24;;;;;;;88.00;34.70;;;;;;;5.31;100.00;95772.94;1029033;28;20282;-69
2021/11/14 02:02:55;;;;;;;89.82;35.95;;;;;;;5.30;100.00;95771.34;1026452;28;20019;-69
2021/11/14 02:03:26;;;;;;;73.88;33.83;;;;;;;5.26;100.00;95778.00;1026848;28;20019;-69
2021/11/14 02:04:01;;;;;;;67.97;32.67;;;;;;;5.29;100.00;95774.97;1031370;28;20077;-68
2021/11/14 02:04:32;;;;;;;71.80;33.50;;;;;;;5.29;100.00;95769.75;1027093;28;20354;-69
2021/11/14 02:05:05;;;;;;;82.22;35.65;;;;;;;5.26;100.00;95770.22;1023491;28;20646;-69
2021/11/14 02:05:36;;;;;;;92.32;36.60;;;;;;;5.29;100.00;95774.16;1015702;29;20071;-68
2021/11/14 02:06:07;;;;;;;83.93;33.85;;;;;;;5.30;100.00;95773.16;1015498;29;20299;-69
2021/11/14 02:06:39;;;;;;;74.07;33.70;;;;;;;5.26;100.00;95775.41;1020345;28;20347;-69
2021/11/14 02:07:11;;;;;;;82.57;33.33;;;;;;;5.11;100.00;95743.88;1019418;29;20168;-69
2021/11/14 02:07:41;;;;;;;88.60;36.38;;;;;;;5.30;100.00;95768.75;1015586;29;20268;-68
2021/11/14 02:08:12;;;;;;;94.15;36.78;;;;;;;5.27;100.00;95771.81;1022549;28;20686;-68
2021/11/14 02:08:43;;;;;;;104.88;37.85;;;;;;;5.25;100.00;95763.44;1019672;29;20392;-69
2021/11/14 02:09:14;;;;;;;97.88;38.38;;;;;;;5.29;100.00;95766.38;1019204;29;20091;-68
2021/11/14 02:09:45;;;;;;;89.85;36.53;;;;;;;5.30;100.00;95771.34;1020704;28;20039;-69
2021/11/14 02:10:15;;;;;;;133.32;41.97;;;;;;;5.29;100.00;95768.97;1019059;28;20703;-69
2021/11/14 02:10:46;;;;;;;102.10;37.40;;;;;;;5.32;100.00;95773.72;1026934;28;20394;-68
2021/11/14 02:11:17;;;;;;;93.85;37.70;;;;;;;5.29;100.00;95769.75;1026680;28;20027;-68
2021/11/14 02:11:48;;;;;;;77.80;32.85;;;;;;;5.30;100.00;95767.94;1030336;28;20065;-68
2021/11/14 02:12:18;;;;;;;89.57;35.05;;;;;;;5.22;100.00;95758.69;1026304;28;20489;-69
2021/11/14 02:12:49;;;;;;;113.70;40.40;;;;;;;5.29;100.00;95764.56;1026315;28;20449;-69
2021/11/14 02:13:20;;;;;;;84.70;33.63;;;;;;;5.30;100.00;95768.75;1028517;28;20101;-69
2021/11/14 02:13:50;;;;;;;108.10;39.05;;;;;;;5.31;100.00;95767.72;1028460;28;20113;-69
2021/11/14 02:14:22;;;;;;;103.68;37.45;;;;;;;5.29;100.00;95759.34;1030602;28;20019;-68
2021/11/14 02:14:53;;;;;;;102.15;39.10;;;;;;;5.31;100.00;95769.53;1030851;28;20030;-68
2021/11/14 02:15:23;;;;;;;91.75;34.95;;;;;;;5.31;100.00;95766.94;1030204;28;20741;-69
2021/11/14 02:15:54;;;;;;;82.68;33.70;;;;;;;5.29;100.00;95766.38;1026607;28;20069;-68
2021/11/14 02:16:27;;;;;;;102.90;38.08;;;;;;;5.27;100.00;95758.81;1023498;28;20058;-69
2021/11/14 02:16:57;;;;;;;95.53;37.90;;;;;;;5.27;100.00;95756.19;1024684;28;20541;-69
2021/11/14 02:17:30;;;;;;;80.50;33.85;;;;;;;5.30;100.00;95758.34;1022687;28;20281;-69
2021/11/14 02:18:00;;;;;;;73.13;32.63;;;;;;;5.31;100.00;95770.31;1022863;28;20023;-68
2021/11/14 02:18:31;;;;;;;77.28;33.47;;;;;;;5.33;100.00;95767.50;1027415;28;20269;-68
2021/11/14 02:19:01;;;;;;;81.63;34.60;;;;;;;5.31;100.00;95772.94;1031145;28;20058;-68
2021/11/14 02:19:32;;;;;;;85.68;35.75;;;;;;;5.30;100.00;95771.34;1034930;28;20033;-69
2021/11/14 02:20:03;;;;;;;91.47;36.78;;;;;;;5.26;100.00;95761.63;1038570;28;20021;-69
2021/11/14 02:20:34;;;;;;;89.43;35.13;;;;;;;5.31;100.00;95772.94;1034607;28;20018;-70
2021/11/14 02:21:05;;;;;;;88.15;36.50;;;;;;;5.29;100.00;95768.97;1030678;28;20266;-69
2021/11/14 02:21:35;;;;;;;82.25;35.78;;;;;;;5.30;100.00;95773.16;1030980;28;20038;-68
2021/11/14 02:22:06;;;;;;;95.18;35.33;;;;;;;5.27;100.00;95769.22;1029238;28;20051;-67
2021/11/14 02:22:36;;;;;;;88.65;35.90;;;;;;;5.30;100.00;95765.34;1030883;28;20433;-68